sensor_id;sensor_type;location;lat;lon;timestamp;P1;durP1;ratioP1;P2;durP2;ratioP2
14770;SDS011;7477;45.222;5.688;2023-06-10T00:02:31;5.65;;;5.13;;
14770;SDS011;7477;45.222;5.688;2023-06-10T00:05:50;7.90;;;5.70;;
14770;SDS011;7477;45.222;5.688;2023-06-10T00:09:09;6.60;;;5.60;;
14770;SDS011;7477;45.222;5.688;2023-06-10T00:12:29;5.20;;;4.70;;
14770;SDS011;7477;45.222;5.688;2023-06-10T00:15:49;6.53;;;5.03;;
14770;SDS011;7477;45.222;5.688;2023-06-10T00:19:08;8.00;;;6.25;;
14770;SDS011;7477;45.222;5.688;2023-06-10T00:22:28;6.45;;;4.85;;
14770;SDS011;7477;45.222;5.688;2023-06-10T00:25:48;6.15;;;5.50;;
14770;SDS011;7477;45.222;5.688;2023-06-10T00:29:07;10.82;;;5.65;;
14770;SDS011;7477;45.222;5.688;2023-06-10T00:32:27;6.20;;;5.20;;
14770;SDS011;7477;45.222;5.688;2023-06-10T00:35:46;11.32;;;4.82;;
14770;SDS011;7477;45.222;5.688;2023-06-10T00:39:05;7.15;;;4.80;;
14770;SDS011;7477;45.222;5.688;2023-06-10T00:42:25;4.93;;;3.78;;
14770;SDS011;7477;45.222;5.688;2023-06-10T00:45:44;3.30;;;3.00;;
14770;SDS011;7477;45.222;5.688;2023-06-10T00:49:04;5.40;;;3.70;;
14770;SDS011;7477;45.222;5.688;2023-06-10T00:52:24;4.68;;;3.80;;
14770;SDS011;7477;45.222;5.688;2023-06-10T00:55:46;5.93;;;4.10;;
14770;SDS011;7477;45.222;5.688;2023-06-10T00:59:06;4.38;;;3.97;;
14770;SDS011;7477;45.222;5.688;2023-06-10T01:02:26;5.65;;;4.18;;
14770;SDS011;7477;45.222;5.688;2023-06-10T01:05:53;4.90;;;4.43;;
14770;SDS011;7477;45.222;5.688;2023-06-10T01:13:22;7.15;;;4.40;;
14770;SDS011;7477;45.222;5.688;2023-06-10T01:16:47;5.85;;;4.30;;
14770;SDS011;7477;45.222;5.688;2023-06-10T01:20:07;3.80;;;3.50;;
14770;SDS011;7477;45.222;5.688;2023-06-10T01:23:30;8.85;;;4.45;;
14770;SDS011;7477;45.222;5.688;2023-06-10T01:26:50;4.53;;;4.13;;
14770;SDS011;7477;45.222;5.688;2023-06-10T01:30:16;6.50;;;4.22;;
14770;SDS011;7477;45.222;5.688;2023-06-10T01:33:42;6.63;;;4.30;;
14770;SDS011;7477;45.222;5.688;2023-06-10T01:37:06;4.95;;;4.35;;
14770;SDS011;7477;45.222;5.688;2023-06-10T01:40:27;6.57;;;4.65;;
14770;SDS011;7477;45.222;5.688;2023-06-10T01:43:48;7.65;;;5.00;;
14770;SDS011;7477;45.222;5.688;2023-06-10T01:47:08;7.45;;;4.63;;
14770;SDS011;7477;45.222;5.688;2023-06-10T01:50:27;7.55;;;4.50;;
14770;SDS011;7477;45.222;5.688;2023-06-10T01:53:46;5.85;;;4.15;;
14770;SDS011;7477;45.222;5.688;2023-06-10T01:57:06;5.55;;;3.80;;
14770;SDS011;7477;45.222;5.688;2023-06-10T02:00:25;7.03;;;3.60;;
14770;SDS011;7477;45.222;5.688;2023-06-10T02:03:45;4.30;;;3.90;;
14770;SDS011;7477;45.222;5.688;2023-06-10T02:07:04;6.95;;;4.78;;
14770;SDS011;7477;45.222;5.688;2023-06-10T02:10:24;8.23;;;4.07;;
14770;SDS011;7477;45.222;5.688;2023-06-10T02:13:44;6.43;;;4.03;;
14770;SDS011;7477;45.222;5.688;2023-06-10T02:17:03;8.38;;;4.65;;
14770;SDS011;7477;45.222;5.688;2023-06-10T02:20:23;8.38;;;4.80;;
14770;SDS011;7477;45.222;5.688;2023-06-10T02:23:42;5.05;;;4.55;;
14770;SDS011;7477;45.222;5.688;2023-06-10T02:27:02;6.20;;;5.05;;
14770;SDS011;7477;45.222;5.688;2023-06-10T02:30:22;6.28;;;4.68;;
14770;SDS011;7477;45.222;5.688;2023-06-10T02:33:41;5.88;;;4.43;;
14770;SDS011;7477;45.222;5.688;2023-06-10T02:37:00;5.80;;;4.53;;
14770;SDS011;7477;45.222;5.688;2023-06-10T02:40:21;6.10;;;4.70;;
14770;SDS011;7477;45.222;5.688;2023-06-10T02:43:41;6.65;;;4.50;;
14770;SDS011;7477;45.222;5.688;2023-06-10T02:47:00;5.00;;;4.15;;
14770;SDS011;7477;45.222;5.688;2023-06-10T02:50:19;7.20;;;4.95;;
14770;SDS011;7477;45.222;5.688;2023-06-10T02:53:38;7.18;;;4.00;;
14770;SDS011;7477;45.222;5.688;2023-06-10T02:56:58;7.82;;;4.32;;
14770;SDS011;7477;45.222;5.688;2023-06-10T03:00:17;8.73;;;4.25;;
14770;SDS011;7477;45.222;5.688;2023-06-10T03:03:38;5.07;;;4.43;;
14770;SDS011;7477;45.222;5.688;2023-06-10T03:07:00;5.07;;;4.28;;
14770;SDS011;7477;45.222;5.688;2023-06-10T03:10:22;5.13;;;4.25;;
14770;SDS011;7477;45.222;5.688;2023-06-10T03:13:41;6.85;;;4.53;;
14770;SDS011;7477;45.222;5.688;2023-06-10T03:17:00;6.32;;;4.20;;
14770;SDS011;7477;45.222;5.688;2023-06-10T03:20:19;4.97;;;4.07;;
14770;SDS011;7477;45.222;5.688;2023-06-10T03:23:40;5.32;;;4.13;;
14770;SDS011;7477;45.222;5.688;2023-06-10T03:26:59;8.15;;;4.43;;
14770;SDS011;7477;45.222;5.688;2023-06-10T03:30:19;6.78;;;4.32;;
14770;SDS011;7477;45.222;5.688;2023-06-10T03:33:39;5.47;;;3.95;;
14770;SDS011;7477;45.222;5.688;2023-06-10T03:36:58;5.10;;;3.63;;
14770;SDS011;7477;45.222;5.688;2023-06-10T03:40:17;6.88;;;4.32;;
14770;SDS011;7477;45.222;5.688;2023-06-10T03:43:37;5.05;;;4.03;;
14770;SDS011;7477;45.222;5.688;2023-06-10T03:46:59;4.10;;;3.70;;
14770;SDS011;7477;45.222;5.688;2023-06-10T03:50:18;5.97;;;4.40;;
14770;SDS011;7477;45.222;5.688;2023-06-10T03:53:38;5.18;;;4.55;;
14770;SDS011;7477;45.222;5.688;2023-06-10T03:56:58;4.00;;;3.65;;
14770;SDS011;7477;45.222;5.688;2023-06-10T04:00:17;5.82;;;4.40;;
14770;SDS011;7477;45.222;5.688;2023-06-10T04:03:37;13.32;;;4.32;;
14770;SDS011;7477;45.222;5.688;2023-06-10T04:06:57;6.65;;;4.15;;
14770;SDS011;7477;45.222;5.688;2023-06-10T04:10:17;4.95;;;4.40;;
14770;SDS011;7477;45.222;5.688;2023-06-10T04:13:36;7.75;;;4.45;;
14770;SDS011;7477;45.222;5.688;2023-06-10T04:16:56;7.47;;;4.47;;
14770;SDS011;7477;45.222;5.688;2023-06-10T04:20:15;7.80;;;4.80;;
14770;SDS011;7477;45.222;5.688;2023-06-10T04:23:35;6.18;;;4.22;;
14770;SDS011;7477;45.222;5.688;2023-06-10T04:26:56;6.63;;;4.43;;
14770;SDS011;7477;45.222;5.688;2023-06-10T04:30:15;6.57;;;4.85;;
14770;SDS011;7477;45.222;5.688;2023-06-10T04:33:35;5.55;;;4.97;;
14770;SDS011;7477;45.222;5.688;2023-06-10T04:36:54;7.70;;;5.10;;
14770;SDS011;7477;45.222;5.688;2023-06-10T04:40:13;6.47;;;4.57;;
14770;SDS011;7477;45.222;5.688;2023-06-10T04:43:34;6.88;;;4.90;;
14770;SDS011;7477;45.222;5.688;2023-06-10T04:46:53;11.30;;;5.10;;
14770;SDS011;7477;45.222;5.688;2023-06-10T04:50:14;6.25;;;5.35;;
14770;SDS011;7477;45.222;5.688;2023-06-10T04:53:34;7.35;;;4.93;;
14770;SDS011;7477;45.222;5.688;2023-06-10T04:56:53;5.40;;;4.72;;
14770;SDS011;7477;45.222;5.688;2023-06-10T05:00:13;9.10;;;5.72;;
14770;SDS011;7477;45.222;5.688;2023-06-10T05:03:32;7.55;;;5.80;;
14770;SDS011;7477;45.222;5.688;2023-06-10T05:06:52;7.95;;;5.68;;
14770;SDS011;7477;45.222;5.688;2023-06-10T05:10:11;9.93;;;5.82;;
14770;SDS011;7477;45.222;5.688;2023-06-10T05:13:30;6.63;;;5.63;;
14770;SDS011;7477;45.222;5.688;2023-06-10T05:16:49;6.85;;;5.50;;
14770;SDS011;7477;45.222;5.688;2023-06-10T05:20:09;7.85;;;5.05;;
14770;SDS011;7477;45.222;5.688;2023-06-10T05:23:29;7.05;;;4.85;;
14770;SDS011;7477;45.222;5.688;2023-06-10T05:26:48;7.15;;;5.22;;
14770;SDS011;7477;45.222;5.688;2023-06-10T05:30:08;9.13;;;5.05;;
14770;SDS011;7477;45.222;5.688;2023-06-10T05:33:29;5.82;;;5.20;;
14770;SDS011;7477;45.222;5.688;2023-06-10T05:36:48;6.57;;;5.70;;
14770;SDS011;7477;45.222;5.688;2023-06-10T05:40:07;6.88;;;6.10;;
14770;SDS011;7477;45.222;5.688;2023-06-10T05:43:27;13.45;;;6.70;;
14770;SDS011;7477;45.222;5.688;2023-06-10T05:46:46;7.30;;;6.60;;
14770;SDS011;7477;45.222;5.688;2023-06-10T05:50:05;9.32;;;6.50;;
14770;SDS011;7477;45.222;5.688;2023-06-10T05:53:27;7.53;;;6.45;;
14770;SDS011;7477;45.222;5.688;2023-06-10T05:56:46;10.20;;;6.93;;
14770;SDS011;7477;45.222;5.688;2023-06-10T06:00:06;10.02;;;6.35;;
14770;SDS011;7477;45.222;5.688;2023-06-10T06:03:26;9.88;;;6.57;;
14770;SDS011;7477;45.222;5.688;2023-06-10T06:06:47;7.15;;;6.45;;
14770;SDS011;7477;45.222;5.688;2023-06-10T06:10:06;9.45;;;6.03;;
14770;SDS011;7477;45.222;5.688;2023-06-10T06:13:25;7.30;;;5.75;;
14770;SDS011;7477;45.222;5.688;2023-06-10T06:16:45;8.27;;;7.28;;
14770;SDS011;7477;45.222;5.688;2023-06-10T06:20:04;7.90;;;6.85;;
14770;SDS011;7477;45.222;5.688;2023-06-10T06:23:24;6.97;;;6.00;;
14770;SDS011;7477;45.222;5.688;2023-06-10T06:26:43;9.75;;;6.72;;
14770;SDS011;7477;45.222;5.688;2023-06-10T06:30:02;9.10;;;6.82;;
14770;SDS011;7477;45.222;5.688;2023-06-10T06:33:22;8.05;;;6.05;;
14770;SDS011;7477;45.222;5.688;2023-06-10T06:36:42;9.13;;;6.82;;
14770;SDS011;7477;45.222;5.688;2023-06-10T06:40:01;9.73;;;7.28;;
14770;SDS011;7477;45.222;5.688;2023-06-10T06:43:21;8.93;;;7.00;;
14770;SDS011;7477;45.222;5.688;2023-06-10T06:46:41;8.40;;;6.78;;
14770;SDS011;7477;45.222;5.688;2023-06-10T06:50:00;8.57;;;6.43;;
14770;SDS011;7477;45.222;5.688;2023-06-10T06:53:21;8.40;;;6.78;;
14770;SDS011;7477;45.222;5.688;2023-06-10T06:56:40;11.65;;;7.07;;
14770;SDS011;7477;45.222;5.688;2023-06-10T06:59:59;9.65;;;6.38;;
14770;SDS011;7477;45.222;5.688;2023-06-10T07:03:18;6.32;;;5.68;;
14770;SDS011;7477;45.222;5.688;2023-06-10T07:06:38;7.88;;;5.57;;
14770;SDS011;7477;45.222;5.688;2023-06-10T07:09:57;7.63;;;6.57;;
14770;SDS011;7477;45.222;5.688;2023-06-10T07:13:16;8.45;;;5.90;;
14770;SDS011;7477;45.222;5.688;2023-06-10T07:16:35;10.77;;;6.90;;
14770;SDS011;7477;45.222;5.688;2023-06-10T07:19:54;7.25;;;5.50;;
14770;SDS011;7477;45.222;5.688;2023-06-10T07:23:16;8.77;;;7.43;;
14770;SDS011;7477;45.222;5.688;2023-06-10T07:26:35;10.85;;;6.43;;
14770;SDS011;7477;45.222;5.688;2023-06-10T07:29:55;8.77;;;6.90;;
14770;SDS011;7477;45.222;5.688;2023-06-10T07:33:14;8.07;;;6.45;;
14770;SDS011;7477;45.222;5.688;2023-06-10T07:36:33;7.95;;;6.75;;
14770;SDS011;7477;45.222;5.688;2023-06-10T07:39:52;11.60;;;6.40;;
14770;SDS011;7477;45.222;5.688;2023-06-10T07:43:12;9.48;;;7.18;;
14770;SDS011;7477;45.222;5.688;2023-06-10T07:46:31;10.02;;;7.30;;
14770;SDS011;7477;45.222;5.688;2023-06-10T07:49:51;8.10;;;6.82;;
14770;SDS011;7477;45.222;5.688;2023-06-10T07:53:10;7.78;;;6.97;;
14770;SDS011;7477;45.222;5.688;2023-06-10T07:56:29;9.30;;;7.47;;
14770;SDS011;7477;45.222;5.688;2023-06-10T07:59:49;7.68;;;6.85;;
14770;SDS011;7477;45.222;5.688;2023-06-10T08:03:09;6.63;;;6.03;;
14770;SDS011;7477;45.222;5.688;2023-06-10T08:06:28;9.07;;;6.68;;
14770;SDS011;7477;45.222;5.688;2023-06-10T08:09:47;8.40;;;7.20;;
14770;SDS011;7477;45.222;5.688;2023-06-10T08:13:07;7.28;;;6.45;;
14770;SDS011;7477;45.222;5.688;2023-06-10T08:16:27;8.20;;;6.20;;
14770;SDS011;7477;45.222;5.688;2023-06-10T08:19:46;8.95;;;6.47;;
14770;SDS011;7477;45.222;5.688;2023-06-10T08:23:05;8.38;;;6.18;;
14770;SDS011;7477;45.222;5.688;2023-06-10T08:26:24;7.78;;;6.03;;
14770;SDS011;7477;45.222;5.688;2023-06-10T08:29:44;7.15;;;6.45;;
14770;SDS011;7477;45.222;5.688;2023-06-10T08:33:04;7.38;;;6.60;;
14770;SDS011;7477;45.222;5.688;2023-06-10T08:36:23;7.93;;;6.35;;
14770;SDS011;7477;45.222;5.688;2023-06-10T08:39:42;7.50;;;5.80;;
14770;SDS011;7477;45.222;5.688;2023-06-10T08:43:05;6.03;;;5.18;;
14770;SDS011;7477;45.222;5.688;2023-06-10T08:46:27;8.75;;;5.75;;
14770;SDS011;7477;45.222;5.688;2023-06-10T08:49:49;7.38;;;5.28;;
14770;SDS011;7477;45.222;5.688;2023-06-10T08:53:09;6.05;;;5.05;;
14770;SDS011;7477;45.222;5.688;2023-06-10T08:56:36;9.25;;;4.60;;
14770;SDS011;7477;45.222;5.688;2023-06-10T08:59:58;7.05;;;5.18;;
14770;SDS011;7477;45.222;5.688;2023-06-10T09:03:18;6.53;;;4.80;;
14770;SDS011;7477;45.222;5.688;2023-06-10T09:06:39;5.95;;;5.07;;
14770;SDS011;7477;45.222;5.688;2023-06-10T09:09:59;9.63;;;4.72;;
14770;SDS011;7477;45.222;5.688;2023-06-10T09:13:22;5.78;;;5.18;;
14770;SDS011;7477;45.222;5.688;2023-06-10T09:16:41;6.00;;;5.40;;
14770;SDS011;7477;45.222;5.688;2023-06-10T09:20:01;7.80;;;5.13;;
14770;SDS011;7477;45.222;5.688;2023-06-10T09:23:21;4.45;;;4.05;;
14770;SDS011;7477;45.222;5.688;2023-06-10T09:26:42;5.28;;;4.43;;
14770;SDS011;7477;45.222;5.688;2023-06-10T09:30:02;4.47;;;3.92;;
14770;SDS011;7477;45.222;5.688;2023-06-10T09:33:23;4.38;;;3.97;;
14770;SDS011;7477;45.222;5.688;2023-06-10T09:36:45;4.68;;;4.13;;
14770;SDS011;7477;45.222;5.688;2023-06-10T09:40:05;6.35;;;4.13;;
14770;SDS011;7477;45.222;5.688;2023-06-10T09:43:38;5.20;;;4.00;;
14770;SDS011;7477;45.222;5.688;2023-06-10T09:46:59;3.80;;;3.50;;
14770;SDS011;7477;45.222;5.688;2023-06-10T09:50:19;3.90;;;3.38;;
14770;SDS011;7477;45.222;5.688;2023-06-10T09:53:39;7.30;;;4.68;;
14770;SDS011;7477;45.222;5.688;2023-06-10T09:56:58;3.72;;;3.42;;
14770;SDS011;7477;45.222;5.688;2023-06-10T10:00:25;7.72;;;4.10;;
14770;SDS011;7477;45.222;5.688;2023-06-10T10:03:49;3.90;;;3.60;;
14770;SDS011;7477;45.222;5.688;2023-06-10T10:07:10;5.13;;;3.85;;
14770;SDS011;7477;45.222;5.688;2023-06-10T10:10:30;5.40;;;4.03;;
14770;SDS011;7477;45.222;5.688;2023-06-10T10:13:50;4.03;;;3.60;;
14770;SDS011;7477;45.222;5.688;2023-06-10T10:17:10;7.97;;;3.75;;
14770;SDS011;7477;45.222;5.688;2023-06-10T10:20:31;4.43;;;3.60;;
14770;SDS011;7477;45.222;5.688;2023-06-10T10:23:53;3.55;;;3.25;;
14770;SDS011;7477;45.222;5.688;2023-06-10T10:27:27;3.92;;;3.63;;
14770;SDS011;7477;45.222;5.688;2023-06-10T10:30:50;3.80;;;3.28;;
14770;SDS011;7477;45.222;5.688;2023-06-10T10:34:16;3.50;;;3.17;;
14770;SDS011;7477;45.222;5.688;2023-06-10T10:37:44;5.50;;;3.00;;
14770;SDS011;7477;45.222;5.688;2023-06-10T10:41:05;6.43;;;3.40;;
14770;SDS011;7477;45.222;5.688;2023-06-10T10:44:25;3.63;;;3.30;;
14770;SDS011;7477;45.222;5.688;2023-06-10T10:47:45;5.88;;;2.75;;
14770;SDS011;7477;45.222;5.688;2023-06-10T10:51:05;3.38;;;2.85;;
14770;SDS011;7477;45.222;5.688;2023-06-10T10:54:28;3.13;;;2.83;;
14770;SDS011;7477;45.222;5.688;2023-06-10T10:57:55;4.20;;;2.83;;
14770;SDS011;7477;45.222;5.688;2023-06-10T11:01:17;3.40;;;3.10;;
14770;SDS011;7477;45.222;5.688;2023-06-10T11:04:36;2.90;;;2.60;;
14770;SDS011;7477;45.222;5.688;2023-06-10T11:07:55;3.38;;;2.53;;
14770;SDS011;7477;45.222;5.688;2023-06-10T11:14:37;5.07;;;2.70;;
14770;SDS011;7477;45.222;5.688;2023-06-10T11:18:15;3.00;;;2.78;;
14770;SDS011;7477;45.222;5.688;2023-06-10T11:21:59;2.88;;;2.67;;
14770;SDS011;7477;45.222;5.688;2023-06-10T11:25:38;3.00;;;2.70;;
14770;SDS011;7477;45.222;5.688;2023-06-10T11:32:17;2.53;;;2.20;;
14770;SDS011;7477;45.222;5.688;2023-06-10T11:35:37;6.03;;;3.42;;
14770;SDS011;7477;45.222;5.688;2023-06-10T11:39:00;3.25;;;2.35;;
14770;SDS011;7477;45.222;5.688;2023-06-10T11:42:22;2.75;;;2.55;;
14770;SDS011;7477;45.222;5.688;2023-06-10T11:45:41;2.80;;;2.40;;
14770;SDS011;7477;45.222;5.688;2023-06-10T11:49:01;3.10;;;2.40;;
14770;SDS011;7477;45.222;5.688;2023-06-10T11:52:26;2.35;;;2.00;;
14770;SDS011;7477;45.222;5.688;2023-06-10T11:55:56;4.25;;;2.10;;
14770;SDS011;7477;45.222;5.688;2023-06-10T11:59:15;3.67;;;2.63;;
14770;SDS011;7477;45.222;5.688;2023-06-10T12:02:34;3.42;;;2.88;;
14770;SDS011;7477;45.222;5.688;2023-06-10T12:09:23;4.20;;;2.50;;
14770;SDS011;7477;45.222;5.688;2023-06-10T12:12:44;2.72;;;2.53;;
14770;SDS011;7477;45.222;5.688;2023-06-10T12:16:09;4.63;;;2.60;;
14770;SDS011;7477;45.222;5.688;2023-06-10T12:19:29;3.00;;;2.70;;
14770;SDS011;7477;45.222;5.688;2023-06-10T12:22:48;2.75;;;2.55;;
14770;SDS011;7477;45.222;5.688;2023-06-10T12:26:07;3.92;;;2.60;;
14770;SDS011;7477;45.222;5.688;2023-06-10T12:29:26;4.63;;;3.10;;
14770;SDS011;7477;45.222;5.688;2023-06-10T12:32:50;5.13;;;2.58;;
14770;SDS011;7477;45.222;5.688;2023-06-10T12:36:15;2.80;;;2.60;;
14770;SDS011;7477;45.222;5.688;2023-06-10T12:39:36;2.90;;;2.70;;
14770;SDS011;7477;45.222;5.688;2023-06-10T12:42:55;4.38;;;2.72;;
14770;SDS011;7477;45.222;5.688;2023-06-10T12:46:14;2.47;;;2.20;;
14770;SDS011;7477;45.222;5.688;2023-06-10T12:49:34;2.75;;;2.17;;
14770;SDS011;7477;45.222;5.688;2023-06-10T12:52:54;3.10;;;2.35;;
14770;SDS011;7477;45.222;5.688;2023-06-10T12:56:13;2.70;;;2.50;;
14770;SDS011;7477;45.222;5.688;2023-06-10T12:59:33;3.78;;;2.33;;
14770;SDS011;7477;45.222;5.688;2023-06-10T13:02:52;3.92;;;2.30;;
14770;SDS011;7477;45.222;5.688;2023-06-10T13:06:12;4.80;;;2.10;;
14770;SDS011;7477;45.222;5.688;2023-06-10T13:09:31;2.85;;;2.55;;
14770;SDS011;7477;45.222;5.688;2023-06-10T13:12:51;4.07;;;2.35;;
14770;SDS011;7477;45.222;5.688;2023-06-10T13:16:11;3.60;;;2.25;;
14770;SDS011;7477;45.222;5.688;2023-06-10T13:19:30;3.03;;;2.38;;
14770;SDS011;7477;45.222;5.688;2023-06-10T13:22:50;2.35;;;2.15;;
14770;SDS011;7477;45.222;5.688;2023-06-10T13:26:09;7.10;;;2.40;;
14770;SDS011;7477;45.222;5.688;2023-06-10T13:29:28;4.72;;;2.80;;
14770;SDS011;7477;45.222;5.688;2023-06-10T13:32:49;2.75;;;2.25;;
14770;SDS011;7477;45.222;5.688;2023-06-10T13:36:08;2.60;;;2.22;;
14770;SDS011;7477;45.222;5.688;2023-06-10T13:39:28;2.85;;;2.50;;
14770;SDS011;7477;45.222;5.688;2023-06-10T13:42:47;3.45;;;1.80;;
14770;SDS011;7477;45.222;5.688;2023-06-10T13:46:09;2.75;;;2.50;;
14770;SDS011;7477;45.222;5.688;2023-06-10T13:49:29;5.97;;;2.20;;
14770;SDS011;7477;45.222;5.688;2023-06-10T13:52:48;3.10;;;2.28;;
14770;SDS011;7477;45.222;5.688;2023-06-10T13:56:07;2.28;;;2.08;;
14770;SDS011;7477;45.222;5.688;2023-06-10T13:59:26;2.72;;;2.15;;
14770;SDS011;7477;45.222;5.688;2023-06-10T14:02:46;3.10;;;2.72;;
14770;SDS011;7477;45.222;5.688;2023-06-10T14:06:05;3.58;;;2.35;;
14770;SDS011;7477;45.222;5.688;2023-06-10T14:09:25;3.45;;;2.25;;
14770;SDS011;7477;45.222;5.688;2023-06-10T14:12:44;2.97;;;2.40;;
14770;SDS011;7477;45.222;5.688;2023-06-10T14:16:03;3.17;;;2.33;;
14770;SDS011;7477;45.222;5.688;2023-06-10T14:19:23;2.97;;;2.60;;
14770;SDS011;7477;45.222;5.688;2023-06-10T14:22:42;3.25;;;2.25;;
14770;SDS011;7477;45.222;5.688;2023-06-10T14:26:01;2.55;;;2.35;;
14770;SDS011;7477;45.222;5.688;2023-06-10T14:29:21;2.42;;;2.22;;
14770;SDS011;7477;45.222;5.688;2023-06-10T14:32:40;4.60;;;2.40;;
14770;SDS011;7477;45.222;5.688;2023-06-10T14:36:00;4.65;;;2.65;;
14770;SDS011;7477;45.222;5.688;2023-06-10T14:39:19;2.08;;;1.98;;
14770;SDS011;7477;45.222;5.688;2023-06-10T14:42:39;4.53;;;2.50;;
14770;SDS011;7477;45.222;5.688;2023-06-10T14:45:58;4.13;;;2.55;;
14770;SDS011;7477;45.222;5.688;2023-06-10T14:49:17;2.97;;;2.53;;
14770;SDS011;7477;45.222;5.688;2023-06-10T14:52:36;2.63;;;2.42;;
14770;SDS011;7477;45.222;5.688;2023-06-10T14:55:55;4.28;;;2.47;;
14770;SDS011;7477;45.222;5.688;2023-06-10T14:59:14;15.15;;;3.20;;
14770;SDS011;7477;45.222;5.688;2023-06-10T15:02:34;4.32;;;2.60;;
14770;SDS011;7477;45.222;5.688;2023-06-10T15:05:53;5.53;;;2.53;;
14770;SDS011;7477;45.222;5.688;2023-06-10T15:09:13;2.50;;;2.30;;
14770;SDS011;7477;45.222;5.688;2023-06-10T15:12:33;1.98;;;1.80;;
14770;SDS011;7477;45.222;5.688;2023-06-10T15:15:52;2.92;;;2.08;;
14770;SDS011;7477;45.222;5.688;2023-06-10T15:19:11;6.10;;;2.55;;
14770;SDS011;7477;45.222;5.688;2023-06-10T15:22:30;3.22;;;2.92;;
14770;SDS011;7477;45.222;5.688;2023-06-10T15:25:50;3.90;;;2.80;;
14770;SDS011;7477;45.222;5.688;2023-06-10T15:29:10;5.63;;;2.20;;
14770;SDS011;7477;45.222;5.688;2023-06-10T15:32:29;4.50;;;2.30;;
14770;SDS011;7477;45.222;5.688;2023-06-10T15:35:48;3.38;;;2.28;;
14770;SDS011;7477;45.222;5.688;2023-06-10T15:39:08;5.90;;;2.60;;
14770;SDS011;7477;45.222;5.688;2023-06-10T15:42:27;3.55;;;2.40;;
14770;SDS011;7477;45.222;5.688;2023-06-10T15:45:46;2.55;;;1.92;;
14770;SDS011;7477;45.222;5.688;2023-06-10T15:49:06;2.63;;;2.08;;
14770;SDS011;7477;45.222;5.688;2023-06-10T15:52:25;5.90;;;2.30;;
14770;SDS011;7477;45.222;5.688;2023-06-10T15:55:44;4.07;;;2.50;;
14770;SDS011;7477;45.222;5.688;2023-06-10T15:59:03;3.35;;;2.33;;
14770;SDS011;7477;45.222;5.688;2023-06-10T16:02:22;8.57;;;3.67;;
14770;SDS011;7477;45.222;5.688;2023-06-10T16:05:42;7.30;;;2.60;;
14770;SDS011;7477;45.222;5.688;2023-06-10T16:09:01;4.22;;;2.35;;
14770;SDS011;7477;45.222;5.688;2023-06-10T16:12:20;2.97;;;2.35;;
14770;SDS011;7477;45.222;5.688;2023-06-10T16:15:39;3.85;;;2.28;;
14770;SDS011;7477;45.222;5.688;2023-06-10T16:18:59;2.20;;;2.00;;
14770;SDS011;7477;45.222;5.688;2023-06-10T16:22:18;2.40;;;2.00;;
14770;SDS011;7477;45.222;5.688;2023-06-10T16:25:37;2.47;;;2.28;;
14770;SDS011;7477;45.222;5.688;2023-06-10T16:28:57;3.67;;;2.30;;
14770;SDS011;7477;45.222;5.688;2023-06-10T16:32:16;4.00;;;1.90;;
14770;SDS011;7477;45.222;5.688;2023-06-10T16:35:35;3.78;;;2.10;;
14770;SDS011;7477;45.222;5.688;2023-06-10T16:38:55;3.33;;;2.25;;
14770;SDS011;7477;45.222;5.688;2023-06-10T16:42:15;4.10;;;2.10;;
14770;SDS011;7477;45.222;5.688;2023-06-10T16:45:35;2.67;;;2.20;;
14770;SDS011;7477;45.222;5.688;2023-06-10T16:48:54;2.30;;;2.10;;
14770;SDS011;7477;45.222;5.688;2023-06-10T16:52:13;1.92;;;1.63;;
14770;SDS011;7477;45.222;5.688;2023-06-10T16:55:33;2.58;;;2.17;;
14770;SDS011;7477;45.222;5.688;2023-06-10T16:58:52;2.42;;;2.22;;
14770;SDS011;7477;45.222;5.688;2023-06-10T17:02:11;12.52;;;2.67;;
14770;SDS011;7477;45.222;5.688;2023-06-10T17:05:31;7.47;;;2.35;;
14770;SDS011;7477;45.222;5.688;2023-06-10T17:08:50;8.70;;;2.30;;
14770;SDS011;7477;45.222;5.688;2023-06-10T17:12:09;1.95;;;1.80;;
14770;SDS011;7477;45.222;5.688;2023-06-10T17:15:29;3.15;;;1.95;;
14770;SDS011;7477;45.222;5.688;2023-06-10T17:18:48;4.22;;;1.77;;
14770;SDS011;7477;45.222;5.688;2023-06-10T17:22:08;2.70;;;1.75;;
14770;SDS011;7477;45.222;5.688;2023-06-10T17:25:27;3.35;;;2.33;;
14770;SDS011;7477;45.222;5.688;2023-06-10T17:28:47;3.63;;;2.45;;
14770;SDS011;7477;45.222;5.688;2023-06-10T17:32:06;2.97;;;2.58;;
14770;SDS011;7477;45.222;5.688;2023-06-10T17:35:26;2.90;;;1.95;;
14770;SDS011;7477;45.222;5.688;2023-06-10T17:38:45;2.17;;;1.98;;
14770;SDS011;7477;45.222;5.688;2023-06-10T17:42:04;2.38;;;2.03;;
14770;SDS011;7477;45.222;5.688;2023-06-10T17:45:24;2.72;;;2.13;;
14770;SDS011;7477;45.222;5.688;2023-06-10T17:48:43;3.28;;;2.58;;
14770;SDS011;7477;45.222;5.688;2023-06-10T17:52:02;3.83;;;2.50;;
14770;SDS011;7477;45.222;5.688;2023-06-10T17:55:22;3.13;;;2.50;;
14770;SDS011;7477;45.222;5.688;2023-06-10T17:58:41;3.45;;;2.72;;
14770;SDS011;7477;45.222;5.688;2023-06-10T18:02:00;3.58;;;2.10;;
14770;SDS011;7477;45.222;5.688;2023-06-10T18:05:20;3.05;;;2.30;;
14770;SDS011;7477;45.222;5.688;2023-06-10T18:08:40;3.78;;;3.00;;
14770;SDS011;7477;45.222;5.688;2023-06-10T18:11:59;4.70;;;2.67;;
14770;SDS011;7477;45.222;5.688;2023-06-10T18:15:18;3.70;;;2.53;;
14770;SDS011;7477;45.222;5.688;2023-06-10T18:18:37;3.15;;;2.30;;
14770;SDS011;7477;45.222;5.688;2023-06-10T18:21:56;6.20;;;2.45;;
14770;SDS011;7477;45.222;5.688;2023-06-10T18:25:15;4.85;;;2.63;;
14770;SDS011;7477;45.222;5.688;2023-06-10T18:28:34;3.25;;;2.92;;
14770;SDS011;7477;45.222;5.688;2023-06-10T18:31:53;2.83;;;2.40;;
14770;SDS011;7477;45.222;5.688;2023-06-10T18:35:13;4.10;;;2.25;;
14770;SDS011;7477;45.222;5.688;2023-06-10T18:38:33;3.35;;;2.83;;
14770;SDS011;7477;45.222;5.688;2023-06-10T18:41:52;3.67;;;2.67;;
14770;SDS011;7477;45.222;5.688;2023-06-10T18:45:11;1.98;;;1.88;;
14770;SDS011;7477;45.222;5.688;2023-06-10T18:48:30;2.85;;;2.63;;
14770;SDS011;7477;45.222;5.688;2023-06-10T18:51:50;2.67;;;2.40;;
14770;SDS011;7477;45.222;5.688;2023-06-10T18:55:09;6.15;;;2.70;;
14770;SDS011;7477;45.222;5.688;2023-06-10T18:58:32;2.85;;;2.45;;
14770;SDS011;7477;45.222;5.688;2023-06-10T19:01:51;3.75;;;2.38;;
14770;SDS011;7477;45.222;5.688;2023-06-10T19:05:10;3.22;;;2.67;;
14770;SDS011;7477;45.222;5.688;2023-06-10T19:08:32;4.90;;;2.65;;
14770;SDS011;7477;45.222;5.688;2023-06-10T19:11:52;4.07;;;2.70;;
14770;SDS011;7477;45.222;5.688;2023-06-10T19:15:11;2.58;;;2.28;;
14770;SDS011;7477;45.222;5.688;2023-06-10T19:18:30;3.67;;;2.30;;
14770;SDS011;7477;45.222;5.688;2023-06-10T19:21:49;3.63;;;2.45;;
14770;SDS011;7477;45.222;5.688;2023-06-10T19:25:08;4.82;;;2.50;;
14770;SDS011;7477;45.222;5.688;2023-06-10T19:28:28;3.10;;;2.10;;
14770;SDS011;7477;45.222;5.688;2023-06-10T19:31:47;3.08;;;2.15;;
14770;SDS011;7477;45.222;5.688;2023-06-10T19:35:07;3.35;;;2.08;;
14770;SDS011;7477;45.222;5.688;2023-06-10T19:38:27;2.72;;;2.30;;
14770;SDS011;7477;45.222;5.688;2023-06-10T19:41:46;3.10;;;2.90;;
14770;SDS011;7477;45.222;5.688;2023-06-10T19:45:06;4.85;;;2.38;;
14770;SDS011;7477;45.222;5.688;2023-06-10T19:48:25;4.47;;;2.25;;
14770;SDS011;7477;45.222;5.688;2023-06-10T19:51:44;2.85;;;2.40;;
14770;SDS011;7477;45.222;5.688;2023-06-10T19:55:06;3.17;;;2.45;;
14770;SDS011;7477;45.222;5.688;2023-06-10T19:58:26;3.60;;;2.30;;
14770;SDS011;7477;45.222;5.688;2023-06-10T20:01:45;2.70;;;2.50;;
14770;SDS011;7477;45.222;5.688;2023-06-10T20:05:04;2.67;;;2.47;;
14770;SDS011;7477;45.222;5.688;2023-06-10T20:08:24;4.55;;;2.13;;
14770;SDS011;7477;45.222;5.688;2023-06-10T20:11:43;3.45;;;2.25;;
14770;SDS011;7477;45.222;5.688;2023-06-10T20:15:03;2.58;;;2.30;;
14770;SDS011;7477;45.222;5.688;2023-06-10T20:18:23;2.78;;;2.50;;
14770;SDS011;7477;45.222;5.688;2023-06-10T20:21:42;4.70;;;2.85;;
14770;SDS011;7477;45.222;5.688;2023-06-10T20:25:01;2.05;;;1.95;;
14770;SDS011;7477;45.222;5.688;2023-06-10T20:28:20;2.60;;;2.15;;
14770;SDS011;7477;45.222;5.688;2023-06-10T20:31:39;2.35;;;2.08;;
14770;SDS011;7477;45.222;5.688;2023-06-10T20:35:01;3.17;;;2.05;;
14770;SDS011;7477;45.222;5.688;2023-06-10T20:38:20;4.65;;;1.80;;